createdAt,value
2024-04-16T00:07:52.329Z,94707.38
2024-04-16T00:10:19.710Z,94686.44
2024-04-16T00:12:51.610Z,94707.16
2024-04-16T00:15:18.977Z,94701.50
2024-04-16T00:17:49.611Z,94681.41
2024-04-16T00:20:17.171Z,94686.97
2024-04-16T00:22:48.220Z,94687.69
2024-04-16T00:25:18.260Z,94683.13
2024-04-16T00:27:48.191Z,94681.59
2024-04-16T00:30:15.713Z,94697.00
2024-04-16T00:32:45.684Z,94693.72
2024-04-16T00:35:13.173Z,94697.81
2024-04-16T00:37:43.120Z,94700.38
2024-04-16T00:40:11.457Z,94703.16
2024-04-16T00:42:44.011Z,94711.13
2024-04-16T00:45:13.666Z,94703.09
2024-04-16T00:47:44.885Z,94711.25
2024-04-16T00:50:12.773Z,94721.25
2024-04-16T00:52:42.938Z,94722.41
2024-04-16T00:55:10.483Z,94698.63
2024-04-16T01:07:34.742Z,94697.38
2024-04-16T01:10:02.199Z,94702.50
2024-04-16T01:12:32.308Z,94701.06
2024-04-16T01:14:59.611Z,94701.50
2024-04-16T01:17:32.615Z,94714.09
2024-04-16T01:19:59.993Z,94714.09
2024-04-16T01:22:30.315Z,94717.66
2024-04-16T01:25:00.583Z,94714.84
2024-04-16T01:27:30.713Z,94717.44
2024-04-16T01:29:58.110Z,94711.56
2024-04-16T01:32:28.060Z,94730.44
2024-04-16T01:34:55.369Z,94714.59
2024-04-16T01:37:25.351Z,94712.56
2024-04-16T01:39:52.736Z,94711.69
2024-04-16T01:42:25.306Z,94711.31
2024-04-16T01:44:55.512Z,94706.38
2024-04-16T01:47:25.706Z,94708.94
2024-04-16T01:49:53.007Z,94701.84
2024-04-16T01:52:23.025Z,94708.88
2024-04-16T01:54:50.383Z,94712.34
2024-04-16T01:57:20.370Z,94702.84
2024-04-16T01:59:50.256Z,94710.09
2024-04-16T02:02:22.374Z,94695.13
2024-04-16T02:04:49.836Z,94691.47
2024-04-16T02:07:20.110Z,94694.75
2024-04-16T02:09:48.333Z,94702.88
2024-04-16T02:12:18.528Z,94719.22
2024-04-16T02:14:45.891Z,94724.28
2024-04-16T02:17:18.472Z,94717.03
2024-04-16T02:19:46.270Z,94716.41
2024-04-16T02:22:16.287Z,94713.34
2024-04-16T02:24:43.640Z,94711.38
2024-04-16T02:27:13.553Z,94708.13
2024-04-16T02:29:40.993Z,94702.25
2024-04-16T02:32:11.184Z,94696.38
2024-04-16T02:34:41.206Z,94696.38
2024-04-16T02:37:11.309Z,94696.56
2024-04-16T02:39:38.615Z,94680.97
2024-04-16T02:42:08.847Z,94685.00
2024-04-16T02:44:36.231Z,94691.72
2024-04-16T02:47:06.542Z,94690.09
2024-04-16T02:49:34.115Z,94688.50
2024-04-16T02:52:06.876Z,94688.72
2024-04-16T02:54:34.241Z,94703.09
2024-04-16T02:57:04.170Z,94703.94
2024-04-16T02:59:31.539Z,94693.00
2024-04-16T03:02:01.607Z,94710.25
2024-04-16T03:04:29.017Z,94722.59
2024-04-16T03:06:59.024Z,94715.91
2024-04-16T03:09:29.377Z,94721.41
2024-04-16T03:11:59.383Z,94735.34
2024-04-16T03:14:29.182Z,94725.41
2024-04-16T03:16:59.387Z,94737.75
2024-04-16T03:19:26.802Z,94733.28
2024-04-16T03:21:56.761Z,94739.38
2024-04-16T03:24:24.102Z,94731.88
2024-04-16T03:26:56.641Z,94727.84
2024-04-16T03:29:24.182Z,94723.59
2024-04-16T03:31:54.152Z,94730.09
2024-04-16T03:34:21.661Z,94740.38
2024-04-16T03:36:51.477Z,94741.00
2024-04-16T03:39:21.491Z,94741.41
2024-04-16T03:41:51.395Z,94738.38
2024-04-16T03:44:23.957Z,94740.38
2024-04-16T03:46:51.242Z,94750.91
2024-04-16T03:49:21.206Z,94750.66
2024-04-16T03:51:48.524Z,94754.09
2024-04-16T03:54:18.437Z,94748.47
2024-04-16T03:56:45.967Z,94756.94
2024-04-16T03:59:38.761Z,94747.81
2024-04-16T04:02:09.340Z,94747.84
2024-04-16T04:04:39.360Z,94758.19
2024-04-16T04:11:17.256Z,94751.31
2024-04-16T04:13:44.582Z,94755.19
2024-04-16T04:16:15.410Z,94761.09
2024-04-16T04:18:46.066Z,94763.50
2024-04-16T04:21:15.997Z,94752.78
2024-04-16T04:23:43.334Z,94751.75
2024-04-16T04:26:13.251Z,94741.19
2024-04-16T04:28:40.604Z,94748.47
2024-04-16T04:31:20.960Z,94756.00
2024-04-16T04:33:51.443Z,94753.97
2024-04-16T04:36:21.414Z,94742.44
2024-04-16T04:38:48.715Z,94750.72
2024-04-16T04:41:18.626Z,94761.25
2024-04-16T04:43:46.010Z,94762.28
2024-04-16T04:46:16.041Z,94763.50
2024-04-16T04:48:43.379Z,94762.91
2024-04-16T04:51:16.190Z,94759.47
2024-04-16T04:53:43.515Z,94755.22
2024-04-16T04:56:13.397Z,94760.28
2024-04-16T04:58:40.823Z,94776.06
2024-04-16T05:01:10.781Z,94767.56
2024-04-16T05:03:38.261Z,94767.78
2024-04-16T05:06:09.683Z,94782.56
2024-04-16T05:08:39.799Z,94774.47
2024-04-16T05:11:09.868Z,94782.75
2024-04-16T05:13:37.314Z,94788.81
2024-04-16T05:16:07.861Z,94788.44
2024-04-16T05:18:35.367Z,94781.34
2024-04-16T05:21:05.371Z,94780.53
2024-04-16T05:23:32.842Z,94780.28
2024-04-16T05:26:06.529Z,94779.06
2024-04-16T05:28:34.202Z,94792.63
2024-04-16T05:31:04.178Z,94796.25
2024-04-16T05:33:31.599Z,94803.38
2024-04-16T05:36:05.689Z,94797.97
2024-04-16T05:38:34.097Z,94795.13
2024-04-16T05:41:07.979Z,94799.56
2024-04-16T05:43:36.226Z,94797.56
2024-04-16T05:46:06.334Z,94794.72
2024-04-16T05:48:34.374Z,94789.88
2024-04-16T05:51:04.425Z,94785.59
2024-04-16T05:53:31.759Z,94774.50
2024-04-16T05:56:01.859Z,94775.69
2024-04-16T05:58:31.864Z,94779.97
2024-04-16T06:01:01.937Z,94779.34
2024-04-16T06:03:29.292Z,94785.81
2024-04-16T06:06:01.608Z,94790.88
2024-04-16T06:08:30.414Z,94786.03
2024-04-16T06:11:00.727Z,94791.28
2024-04-16T06:13:30.679Z,94801.25
2024-04-16T06:16:00.685Z,94796.78
2024-04-16T06:18:29.071Z,94785.81
2024-04-16T06:20:59.188Z,94786.25
2024-04-16T06:23:27.722Z,94784.78
2024-04-16T06:25:57.664Z,94795.16
2024-04-16T06:28:26.045Z,94784.63
2024-04-16T06:30:58.815Z,94796.78
2024-04-16T06:33:26.110Z,94803.66
2024-04-16T06:35:56.994Z,94800.81
2024-04-16T06:38:26.098Z,94793.50
2024-04-16T06:40:56.192Z,94792.09
2024-04-16T06:43:23.628Z,94793.69
2024-04-16T06:45:54.056Z,94800.00
2024-04-16T06:48:24.303Z,94788.44
2024-04-16T06:50:54.719Z,94777.06
2024-04-16T06:53:22.033Z,94790.66
2024-04-16T06:56:03.342Z,94803.63
2024-04-16T06:58:30.859Z,94806.22
2024-04-16T07:01:01.786Z,94805.22
2024-04-16T07:03:31.763Z,94803.41
2024-04-16T07:06:01.702Z,94794.41
2024-04-16T07:08:29.124Z,94797.44
2024-04-16T07:10:59.255Z,94803.47
2024-04-16T07:13:28.469Z,94795.66
2024-04-16T07:15:58.466Z,94776.78
2024-04-16T07:18:25.916Z,94784.53
2024-04-16T07:20:58.468Z,94785.50
2024-04-16T07:23:25.811Z,94778.38
2024-04-16T07:25:55.806Z,94785.09
2024-04-16T07:28:23.382Z,94782.44
2024-04-16T07:30:58.280Z,94783.16
2024-04-16T07:33:36.828Z,94776.53
2024-04-16T07:36:10.882Z,94776.13
2024-04-16T07:38:38.907Z,94777.72
2024-04-16T07:41:09.143Z,94779.09
2024-04-16T07:43:36.867Z,94776.72
2024-04-16T07:46:07.233Z,94779.94
2024-04-16T07:48:34.595Z,94775.34
2024-04-16T07:51:04.480Z,94787.69
2024-04-16T07:53:34.468Z,94788.19
2024-04-16T07:56:04.367Z,94793.69
2024-04-16T07:58:31.769Z,94797.06
2024-04-16T08:01:01.970Z,94796.91
2024-04-16T08:03:29.519Z,94799.13
2024-04-16T08:06:00.237Z,94786.94
2024-04-16T08:08:34.929Z,94797.75
2024-04-16T08:11:15.143Z,94783.09
2024-04-16T08:13:42.896Z,94783.59
2024-04-16T08:16:13.645Z,94787.84
2024-04-16T08:18:42.197Z,94779.50
2024-04-16T08:21:12.156Z,94770.94
2024-04-16T08:23:40.074Z,94769.28
2024-04-16T08:26:12.718Z,94763.25
2024-04-16T08:28:43.501Z,94757.63
2024-04-16T08:31:13.476Z,94757.19
2024-04-16T08:33:40.825Z,94752.69
2024-04-16T08:36:12.156Z,94744.78
2024-04-16T08:38:39.546Z,94742.09
2024-04-16T08:41:09.529Z,94751.47
2024-04-16T08:43:39.277Z,94744.34
2024-04-16T08:46:15.629Z,94744.34
2024-04-16T08:48:47.898Z,94723.25
2024-04-16T08:51:18.249Z,94720.19
2024-04-16T08:53:50.469Z,94722.25
2024-04-16T08:56:19.370Z,94723.94
2024-04-16T08:58:49.494Z,94727.91
2024-04-16T09:01:20.885Z,94723.53
2024-04-16T09:03:52.689Z,94720.31
2024-04-16T09:06:20.572Z,94725.75
2024-04-16T09:09:01.468Z,94718.75
2024-04-16T09:11:36.531Z,94726.72
2024-04-16T09:14:06.323Z,94726.25
2024-04-16T09:16:37.269Z,94718.50
2024-04-16T09:19:10.724Z,94734.94
2024-04-16T09:21:38.129Z,94728.38
2024-04-16T09:24:09.543Z,94724.19
2024-04-16T09:26:38.294Z,94739.59
2024-04-16T09:29:08.810Z,94746.69
2024-04-16T09:31:38.927Z,94736.00
2024-04-16T09:34:10.600Z,94728.81
2024-04-16T09:36:48.596Z,94731.50
2024-04-16T09:39:22.378Z,94726.78
2024-04-16T09:41:50.810Z,94742.03
2024-04-16T09:44:21.464Z,94733.06
2024-04-16T09:46:55.323Z,94725.53
2024-04-16T09:49:33.296Z,94717.88
2024-04-16T09:52:06.163Z,94718.50
2024-04-16T09:54:37.373Z,94690.84
2024-04-16T09:57:06.948Z,94698.44
2024-04-16T09:59:37.841Z,94689.34
2024-04-16T10:02:10.632Z,94712.19
2024-04-16T10:04:40.922Z,94686.19
2024-04-16T10:07:08.772Z,94699.00
2024-04-16T10:09:39.087Z,94694.06
2024-04-16T10:12:07.685Z,94686.09
2024-04-16T10:14:40.718Z,94681.81
2024-04-16T10:17:15.472Z,94678.03
2024-04-16T10:19:47.359Z,94672.00
2024-04-16T10:22:15.230Z,94672.56
2024-04-16T10:24:54.764Z,94674.38
2024-04-16T10:27:23.159Z,94655.00
2024-04-16T10:30:08.444Z,94645.00
2024-04-16T10:32:44.342Z,94638.16
2024-04-16T10:35:15.971Z,94664.09
2024-04-16T10:37:48.768Z,94652.47
2024-04-16T10:40:27.772Z,94659.34
2024-04-16T10:42:55.754Z,94665.16
2024-04-16T10:45:25.997Z,94689.50
2024-04-16T10:47:56.335Z,94668.09
2024-04-16T10:50:26.283Z,94677.50
2024-04-16T10:52:54.056Z,94666.78
2024-04-16T10:55:26.214Z,94648.47
2024-04-16T10:57:53.907Z,94645.22
2024-04-16T11:00:26.140Z,94650.78
2024-04-16T11:03:00.085Z,94645.25
2024-04-16T11:05:30.086Z,94662.97
2024-04-16T11:07:57.592Z,94653.06
2024-04-16T11:10:27.861Z,94648.88
2024-04-16T11:12:57.158Z,94643.25
2024-04-16T11:15:27.275Z,94635.34
2024-04-16T11:17:58.253Z,94628.47
2024-04-16T11:20:28.842Z,94631.78
2024-04-16T11:22:56.597Z,94628.38
2024-04-16T11:25:26.551Z,94621.16
2024-04-16T11:27:53.934Z,94621.91
2024-04-16T11:30:23.985Z,94612.06
2024-04-16T11:32:51.898Z,94607.59
2024-04-16T11:35:25.384Z,94585.97
2024-04-16T11:37:53.084Z,94599.59
2024-04-16T11:40:23.299Z,94594.31
2024-04-16T11:42:51.336Z,94586.16
2024-04-16T11:45:23.417Z,94579.75
2024-04-16T11:47:50.834Z,94589.38
2024-04-16T11:50:21.063Z,94593.97
2024-04-16T11:52:51.215Z,94580.59
2024-04-16T11:55:21.174Z,94576.94
2024-04-16T11:57:48.487Z,94580.66
2024-04-16T12:00:18.651Z,94573.75
2024-04-16T12:02:46.051Z,94559.78
2024-04-16T12:05:15.806Z,94565.09
2024-04-16T12:07:43.345Z,94569.63
2024-04-16T12:10:16.655Z,94566.84
2024-04-16T12:12:44.125Z,94557.19
2024-04-16T12:15:13.733Z,94549.63
2024-04-16T12:17:41.075Z,94543.47
2024-04-16T12:20:11.867Z,94544.56
2024-04-16T12:22:39.283Z,94529.06
2024-04-16T12:25:10.449Z,94534.94
2024-04-16T12:27:40.388Z,94518.03
2024-04-16T12:30:11.529Z,94504.13
2024-04-16T12:32:40.540Z,94515.09
2024-04-16T12:35:13.686Z,94518.66
2024-04-16T12:37:41.349Z,94504.25
2024-04-16T12:40:12.429Z,94489.25
2024-04-16T12:42:44.051Z,94486.63
2024-04-16T12:45:14.114Z,94494.09
2024-04-16T12:47:41.619Z,94483.75
2024-04-16T12:50:11.707Z,94484.94
2024-04-16T12:52:39.156Z,94480.53
2024-04-16T12:55:08.993Z,94468.66
2024-04-16T12:57:36.388Z,94463.00
2024-04-16T13:00:10.341Z,94455.13
2024-04-16T13:02:37.783Z,94446.59
2024-04-16T13:05:08.456Z,94479.47
2024-04-16T13:07:35.925Z,94467.38
2024-04-16T13:10:06.043Z,94447.28
2024-04-16T13:12:33.459Z,94458.22
2024-04-16T13:15:03.154Z,94423.03
2024-04-16T13:17:33.160Z,94440.44
2024-04-16T13:20:03.763Z,94453.44
2024-04-16T13:22:31.142Z,94447.13
2024-04-16T13:25:01.057Z,94435.31
2024-04-16T13:27:28.522Z,94431.25
2024-04-16T13:29:58.260Z,94444.50
2024-04-16T13:32:28.849Z,94431.06
2024-04-16T13:35:00.454Z,94420.53
2024-04-16T13:37:30.953Z,94419.28
2024-04-16T13:39:58.348Z,94438.22
2024-04-16T13:42:27.944Z,94426.16
2024-04-16T13:44:55.306Z,94412.28
2024-04-16T13:47:25.240Z,94424.63
2024-04-16T13:49:52.978Z,94425.88
2024-04-16T13:52:26.135Z,94426.22
2024-04-16T13:54:53.710Z,94417.97
2024-04-16T13:57:23.688Z,94428.63
2024-04-16T13:59:52.772Z,94415.97
2024-04-16T14:02:22.768Z,94415.78
2024-04-16T14:04:50.166Z,94412.50
2024-04-16T14:07:19.895Z,94407.84
2024-04-16T14:09:50.247Z,94408.00
2024-04-16T14:12:20.185Z,94408.94
2024-04-16T14:14:47.634Z,94423.59
2024-04-16T14:17:17.766Z,94399.69
2024-04-16T14:19:45.150Z,94404.69
2024-04-16T14:22:15.097Z,94397.41
2024-04-16T14:24:43.107Z,94409.50
2024-04-16T14:27:15.647Z,94409.72
2024-04-16T14:29:43.095Z,94389.25
2024-04-16T14:32:12.925Z,94388.16
2024-04-16T14:34:40.500Z,94405.16
2024-04-16T14:37:10.777Z,94402.69
2024-04-16T14:39:38.389Z,94391.13
2024-04-16T14:42:08.701Z,94387.28
2024-04-16T14:44:39.297Z,94381.09
2024-04-16T14:47:09.304Z,94375.72
2024-04-16T14:49:36.838Z,94388.31
2024-04-16T14:52:09.554Z,94377.50
2024-04-16T14:54:38.303Z,94389.34
2024-04-16T14:57:08.811Z,94385.13
2024-04-16T14:59:39.050Z,94375.81
2024-04-16T15:02:08.961Z,94384.53
2024-04-16T15:04:36.763Z,94370.03
2024-04-16T15:07:06.942Z,94376.97
2024-04-16T15:09:38.217Z,94381.50
2024-04-16T15:12:09.021Z,94377.75
2024-04-16T15:14:38.974Z,94376.28
2024-04-16T15:17:09.027Z,94397.97
2024-04-16T15:19:36.482Z,94403.28
2024-04-16T15:22:06.237Z,94389.59
2024-04-16T15:24:33.581Z,94391.81
2024-04-16T15:27:03.550Z,94392.38
2024-04-16T15:29:30.905Z,94399.47
2024-04-16T15:32:03.447Z,94387.88
2024-04-16T15:34:30.827Z,94402.59
2024-04-16T15:37:00.620Z,94399.69
2024-04-16T15:39:29.888Z,94412.44
2024-04-16T15:41:59.758Z,94414.13
2024-04-16T15:44:27.049Z,94419.19
2024-04-16T15:46:57.056Z,94398.59
2024-04-16T15:49:27.026Z,94388.81
2024-04-16T15:51:56.919Z,94407.38
2024-04-16T15:54:24.213Z,94404.41
2024-04-16T15:56:54.190Z,94413.16
2024-04-16T15:59:21.542Z,94408.63
2024-04-16T16:01:51.576Z,94401.84
2024-04-16T16:04:22.574Z,94409.25
2024-04-16T16:06:56.302Z,94390.94
2024-04-16T16:09:23.683Z,94400.22
2024-04-16T16:11:53.603Z,94390.22
2024-04-16T16:14:22.232Z,94387.44
2024-04-16T16:16:54.462Z,94384.44
2024-04-16T16:19:21.814Z,94383.00
2024-04-16T16:21:51.813Z,94384.13
2024-04-16T16:24:21.744Z,94388.41
2024-04-16T16:26:51.645Z,94400.59
2024-04-16T16:29:19.113Z,94398.41
2024-04-16T16:31:48.926Z,94382.88
2024-04-16T16:34:16.320Z,94389.66
2024-04-16T16:36:46.254Z,94378.31
2024-04-16T16:39:13.654Z,94394.16
2024-04-16T16:41:46.146Z,94395.22
2024-04-16T16:44:15.212Z,94390.56
2024-04-16T16:46:45.408Z,94399.25
2024-04-16T16:49:13.017Z,94386.25
2024-04-16T16:51:43.255Z,94374.31
2024-04-16T16:54:10.736Z,94380.38
2024-04-16T16:56:40.358Z,94390.56
2024-04-16T16:59:10.316Z,94376.88
2024-04-16T17:01:40.295Z,94350.94
2024-04-16T17:04:07.691Z,94362.19
2024-04-16T17:06:38.963Z,94373.94
2024-04-16T17:09:06.331Z,94376.28
2024-04-16T17:11:36.379Z,94378.94
2024-04-16T17:14:03.664Z,94368.22
2024-04-16T17:16:36.337Z,94385.28
2024-04-16T17:19:03.673Z,94385.28
2024-04-16T17:21:33.626Z,94383.13
2024-04-16T17:24:01.402Z,94394.53
2024-04-16T17:26:31.326Z,94393.09
2024-04-16T17:29:03.067Z,94390.19
2024-04-16T17:31:35.956Z,94387.72
2024-04-16T17:34:03.383Z,94393.25
2024-04-16T17:36:33.771Z,94375.72
2024-04-16T17:39:01.153Z,94397.22
2024-04-16T17:41:31.048Z,94403.06
2024-04-16T17:43:58.794Z,94408.78
2024-04-16T17:46:29.023Z,94401.63
2024-04-16T17:48:59.054Z,94410.31
2024-04-16T17:51:28.962Z,94410.09
2024-04-16T17:53:59.267Z,94415.06
2024-04-16T17:56:26.606Z,94421.09
2024-04-16T17:58:58.434Z,94410.31
2024-04-16T18:01:25.939Z,94417.47
2024-04-16T18:03:57.055Z,94423.53
2024-04-16T18:06:27.704Z,94425.91
2024-04-16T18:08:57.627Z,94428.50
2024-04-16T18:11:26.938Z,94426.88
2024-04-16T18:13:57.099Z,94434.03
2024-04-16T18:16:26.096Z,94436.94
2024-04-16T18:18:56.378Z,94419.47
2024-04-16T18:21:23.799Z,94432.84
2024-04-16T18:23:56.303Z,94427.75
2024-04-16T18:26:23.749Z,94433.06
2024-04-16T18:28:53.736Z,94433.31
2024-04-16T18:31:21.158Z,94435.53
2024-04-16T18:33:51.118Z,94442.22
2024-04-16T18:36:18.587Z,94446.09
2024-04-16T18:38:51.363Z,94445.69
2024-04-16T18:41:21.306Z,94441.66
2024-04-16T18:43:51.321Z,94445.34
2024-04-16T18:46:18.685Z,94454.34
2024-04-16T18:48:48.761Z,94457.00
2024-04-16T18:51:16.166Z,94447.44
2024-04-16T18:53:46.182Z,94449.53
2024-04-16T18:56:15.392Z,94459.09
2024-04-16T18:58:48.002Z,94462.94
2024-04-16T19:01:15.446Z,94448.06
2024-04-16T19:03:45.468Z,94463.25
2024-04-16T19:06:14.715Z,94460.91
2024-04-16T19:08:44.882Z,94462.97
2024-04-16T19:11:16.084Z,94469.00
2024-04-16T19:13:49.421Z,94475.19
2024-04-16T19:16:17.007Z,94482.63
2024-04-16T19:18:47.147Z,94487.00
2024-04-16T19:21:18.130Z,94479.88
2024-04-16T19:23:48.146Z,94385.69
2024-04-16T19:26:15.656Z,94487.03
2024-04-16T19:28:45.429Z,94484.94
2024-04-16T19:31:15.456Z,94489.47
2024-04-16T19:33:48.527Z,94500.66
2024-04-16T19:36:16.116Z,94494.34
2024-04-16T19:38:46.350Z,94484.09
2024-04-16T19:41:15.430Z,94493.78
2024-04-16T19:43:47.280Z,94502.78
2024-04-16T19:46:17.457Z,94491.94
2024-04-16T19:48:47.486Z,94497.47
2024-04-16T19:51:14.970Z,94505.78
2024-04-16T19:53:44.974Z,94518.22
2024-04-16T19:56:14.035Z,94498.75
2024-04-16T19:58:43.968Z,94504.97
2024-04-16T20:01:11.367Z,94497.94
2024-04-16T20:03:45.544Z,94504.38
2024-04-16T20:06:13.050Z,94502.78
2024-04-16T20:08:43.474Z,94507.97
2024-04-16T20:11:11.508Z,94492.78
2024-04-16T20:13:41.630Z,94509.25
2024-04-16T20:16:12.190Z,94472.59
2024-04-16T20:18:45.035Z,94497.56
2024-04-16T20:21:12.387Z,94500.81
2024-04-16T20:23:42.884Z,94493.34
2024-04-16T20:26:10.257Z,94482.75
2024-04-16T20:28:41.151Z,94488.16
2024-04-16T20:31:09.825Z,94486.25
2024-04-16T20:33:40.282Z,94488.38
2024-04-16T20:36:10.530Z,94490.16
2024-04-16T20:38:40.950Z,94476.13
2024-04-16T20:41:08.356Z,94483.38
2024-04-16T20:43:39.213Z,94474.59
2024-04-16T20:46:06.719Z,94475.19
2024-04-16T20:48:36.826Z,94481.97
2024-04-16T20:51:06.049Z,94477.00
2024-04-16T20:53:39.031Z,94470.56
2024-04-16T20:56:07.219Z,94461.81
2024-04-16T20:58:37.233Z,94464.34
2024-04-16T21:01:05.017Z,94471.44
2024-04-16T21:03:35.072Z,94463.03
2024-04-16T21:06:02.625Z,94470.59
2024-04-16T21:08:32.567Z,94461.75
2024-04-16T21:11:02.711Z,94479.09
2024-04-16T21:13:33.762Z,94460.13
2024-04-16T21:16:01.113Z,94477.69
2024-04-16T21:18:31.138Z,94475.78
2024-04-16T21:20:58.624Z,94472.19
2024-04-16T21:23:28.572Z,94476.09
2024-04-16T21:25:56.638Z,94476.63
2024-04-16T21:28:29.226Z,94472.28
2024-04-16T21:30:56.587Z,94487.88
2024-04-16T21:33:26.661Z,94499.50
2024-04-16T21:35:54.068Z,94477.25
2024-04-16T21:38:23.971Z,94499.91
2024-04-16T21:40:51.449Z,94497.88
2024-04-16T21:43:21.462Z,94490.50
2024-04-16T21:45:51.440Z,94494.78
2024-04-16T21:48:21.422Z,94496.59
2024-04-16T21:50:51.981Z,94499.03
2024-04-16T21:53:22.081Z,94497.44
2024-04-16T21:55:49.482Z,94487.88
2024-04-16T21:58:19.610Z,94491.47
2024-04-16T22:00:47.022Z,94495.88
2024-04-16T22:03:19.653Z,94496.03
2024-04-16T22:05:47.080Z,94497.06
2024-04-16T22:08:17.028Z,94497.66
2024-04-16T22:10:44.504Z,94511.16
2024-04-16T22:13:14.444Z,94500.00
2024-04-16T22:15:41.790Z,94508.00
2024-04-16T22:18:11.807Z,94498.91
2024-04-16T22:20:41.816Z,94502.47
2024-04-16T22:23:11.712Z,94508.06
2024-04-16T22:25:39.042Z,94512.94
2024-04-16T22:28:11.340Z,94511.00
2024-04-16T22:30:39.868Z,94508.16
2024-04-16T22:33:09.886Z,94506.69
2024-04-16T22:35:37.369Z,94516.66
2024-04-16T22:38:10.131Z,94512.44
2024-04-16T22:40:37.557Z,94517.03
2024-04-16T22:43:07.874Z,94526.94
2024-04-16T22:45:35.147Z,94524.28
2024-04-16T22:48:05.655Z,94526.94
2024-04-16T22:50:36.227Z,94525.94
2024-04-16T22:53:09.265Z,94527.91
2024-04-16T22:55:36.808Z,94530.66
2024-04-16T22:58:06.873Z,94529.78
2024-04-16T23:00:34.208Z,94517.84
2024-04-16T23:03:04.268Z,94530.66
2024-04-16T23:05:31.748Z,94522.41
2024-04-16T23:08:01.642Z,94531.06
2024-04-16T23:10:31.910Z,94522.31
2024-04-16T23:13:01.880Z,94526.72
2024-04-16T23:15:29.301Z,94520.75
2024-04-16T23:18:00.102Z,94526.25
2024-04-16T23:20:27.626Z,94527.31
2024-04-16T23:22:57.677Z,94521.66
2024-04-16T23:25:25.088Z,94523.88
2024-04-16T23:27:57.669Z,94515.78
2024-04-16T23:30:24.995Z,94510.19
2024-04-16T23:32:54.990Z,94512.94
2024-04-16T23:35:22.375Z,94521.34
2024-04-16T23:37:52.517Z,94513.41
2024-04-16T23:40:19.878Z,94510.47
2024-04-16T23:42:49.924Z,94508.34
2024-04-16T23:45:19.914Z,94497.44
2024-04-16T23:47:50.530Z,94496.38
2024-04-16T23:50:18.069Z,94501.88
2024-04-16T23:52:47.988Z,94504.78
2024-04-16T23:55:15.667Z,94473.66
2024-04-16T23:57:45.346Z,94498.59
